Time;durP1;ratioP1;P1;durP2;ratioP2;P2;SDS_P1;SDS_P2;PMS_P1;PMS_P2;Temp;Humidity;BMP_temperature;BMP_pressure;BME280_temperature;BME280_humidity;BME280_pressure;Samples;Min_cycle;Max_cycle;Signal;HPM_P1;HPM_P2
2021/07/28 00:00:44;;;;;;;14.93;7.32;;;;;;;21.42;48.32;99901.03;5091891;28;20028;-52
2021/07/28 00:03:09;;;;;;;14.55;7.90;;;;;;;21.44;48.25;99900.81;5091786;28;20437;-53
2021/07/28 00:05:40;;;;;;;12.75;6.60;;;;;;;21.45;48.36;99905.22;5091652;28;20035;-50
2021/07/28 00:08:06;;;;;;;15.63;7.57;;;;;;;21.48;47.89;99902.97;5091551;28;20105;-49
2021/07/28 00:10:31;;;;;;;16.25;7.35;;;;;;;21.54;47.72;99897.78;5056910;28;20032;-48
2021/07/28 00:12:57;;;;;;;14.52;7.30;;;;;;;21.67;47.77;99908.00;5073479;28;20028;-49
2021/07/28 00:15:23;;;;;;;16.20;7.78;;;;;;;21.69;47.58;99908.63;5091201;28;20060;-52
2021/07/28 00:17:53;;;;;;;18.52;7.82;;;;;;;21.71;47.62;99914.75;5091928;28;20032;-49
2021/07/28 00:25:34;;;;;;;14.10;8.25;;;;;;;21.85;47.11;99904.81;5091307;28;20036;-50
2021/07/28 00:28:00;;;;;;;14.35;7.35;;;;;;;21.84;47.30;99898.50;5090932;28;20032;-52
2021/07/28 00:30:26;;;;;;;10.93;7.10;;;;;;;21.87;47.53;99898.13;5091250;28;20064;-50
2021/07/28 00:32:51;;;;;;;12.88;7.95;;;;;;;21.86;47.62;99896.44;5091441;28;20631;-51
2021/07/28 00:35:17;;;;;;;13.60;7.47;;;;;;;21.74;47.36;99873.50;5091178;28;20028;-57
2021/07/28 00:37:45;;;;;;;14.10;6.85;;;;;;;21.89;47.49;99884.31;5091476;28;20032;-48
2021/07/28 00:40:12;;;;;;;13.48;7.75;;;;;;;21.93;47.17;99899.22;5091590;28;20466;-53
2021/07/28 00:42:38;;;;;;;12.88;7.88;;;;;;;21.89;47.25;99889.75;5090744;28;20024;-53
2021/07/28 00:45:04;;;;;;;11.93;7.32;;;;;;;21.88;47.48;99893.53;5091088;28;20036;-49
2021/07/28 00:47:32;;;;;;;10.93;7.63;;;;;;;21.91;47.24;99883.06;5081393;28;20463;-52
2021/07/28 00:50:05;;;;;;;13.77;8.23;;;;;;;21.98;46.70;99880.38;5091206;28;20054;-49
2021/07/28 00:52:37;;;;;;;15.32;7.97;;;;;;;21.93;47.18;99878.25;5073343;28;20066;-48
2021/07/28 00:55:05;;;;;;;13.80;7.95;;;;;;;21.90;46.87;99880.53;5091547;28;20396;-49
2021/07/28 00:57:30;;;;;;;15.05;8.20;;;;;;;21.90;47.01;99886.00;5090791;28;20028;-52
2021/07/28 00:59:57;;;;;;;15.55;8.02;;;;;;;21.90;46.96;99886.81;5090956;28;20030;-50
2021/07/28 01:02:22;;;;;;;14.13;8.02;;;;;;;21.85;47.10;99881.13;5073607;28;20020;-50
2021/07/28 01:04:48;;;;;;;17.05;8.73;;;;;;;21.76;47.10;99876.88;5072495;28;20027;-52
2021/07/28 01:07:13;;;;;;;12.57;7.72;;;;;;;21.82;47.37;99872.47;5091146;28;20032;-52
2021/07/28 01:09:38;;;;;;;12.25;8.38;;;;;;;21.79;47.76;99871.03;5091404;28;20039;-53
2021/07/28 01:12:05;;;;;;;15.52;8.40;;;;;;;21.61;47.57;99841.50;5091384;28;20435;-52
2021/07/28 01:14:30;;;;;;;13.68;8.00;;;;;;;21.69;47.83;99863.19;5091274;28;20029;-49
2021/07/28 01:16:56;;;;;;;16.13;7.75;;;;;;;21.55;47.87;99845.84;5091050;28;20495;-56
2021/07/28 01:19:26;;;;;;;15.20;7.88;;;;;;;21.69;47.89;99865.03;5091629;28;20036;-49
2021/07/28 01:21:52;;;;;;;21.80;8.52;;;;;;;21.62;48.01;99867.69;5091405;28;20091;-50
2021/07/28 01:24:18;;;;;;;14.52;8.80;;;;;;;21.59;48.11;99862.66;5090973;28;20491;-52
2021/07/28 01:26:44;;;;;;;17.63;8.65;;;;;;;21.41;48.28;99841.28;5090915;28;20036;-53
2021/07/28 01:29:13;;;;;;;13.05;8.10;;;;;;;21.50;48.54;99870.94;5091247;28;20470;-52
2021/07/28 01:31:40;;;;;;;17.95;9.60;;;;;;;21.43;48.56;99869.16;5091115;28;20439;-50
2021/07/28 01:34:08;;;;;;;13.77;8.88;;;;;;;21.43;48.78;99859.13;5090737;28;20028;-49
2021/07/28 01:36:34;;;;;;;14.45;8.20;;;;;;;21.41;49.13;99857.63;5090537;28;20039;-49
2021/07/28 01:39:01;;;;;;;12.75;8.00;;;;;;;21.40;49.09;99864.97;5091536;28;20024;-53
2021/07/28 01:41:27;;;;;;;14.55;8.82;;;;;;;21.41;49.21;99854.91;5072856;28;20032;-63
2021/07/28 01:43:52;;;;;;;16.65;9.52;;;;;;;21.46;49.04;99852.44;5090986;28;20093;-50
2021/07/28 01:46:18;;;;;;;16.45;8.65;;;;;;;21.46;48.91;99849.72;5090584;28;20024;-50
2021/07/28 01:48:44;;;;;;;16.40;9.45;;;;;;;21.46;49.39;99849.72;5090953;28;20208;-51
2021/07/28 01:51:10;;;;;;;16.67;9.52;;;;;;;21.44;49.00;99847.19;5091020;28;20031;-51
2021/07/28 01:53:36;;;;;;;14.07;8.95;;;;;;;21.45;49.36;99848.03;5090555;28;20039;-48
2021/07/28 01:56:02;;;;;;;19.83;9.45;;;;;;;21.44;49.50;99849.06;5090271;28;20387;-47
2021/07/28 01:58:27;;;;;;;19.50;9.13;;;;;;;21.44;49.33;99846.34;5090878;28;20021;-59
2021/07/28 02:00:53;;;;;;;16.15;9.43;;;;;;;21.45;49.61;99846.16;5091178;28;20039;-54
2021/07/28 02:03:18;;;;;;;14.40;9.30;;;;;;;21.48;49.07;99844.94;5090746;28;20032;-52
2021/07/28 02:05:44;;;;;;;17.02;9.93;;;;;;;21.49;48.97;99836.56;5090311;28;20039;-51
2021/07/28 02:08:12;;;;;;;16.50;9.13;;;;;;;21.53;48.98;99853.38;5090286;28;20048;-49
2021/07/28 02:10:41;;;;;;;16.92;10.32;;;;;;;21.57;48.61;99841.03;5091483;28;20098;-52
2021/07/28 02:13:07;;;;;;;16.17;10.23;;;;;;;21.60;48.81;99840.63;5094038;28;20028;-52
2021/07/28 02:15:35;;;;;;;14.95;9.95;;;;;;;21.65;48.98;99834.63;5093620;28;20467;-49
2021/07/28 02:18:01;;;;;;;18.98;10.35;;;;;;;21.72;48.70;99842.88;5094357;28;20036;-51
2021/07/28 02:20:27;;;;;;;16.35;10.35;;;;;;;21.75;48.40;99828.84;5094603;28;20028;-53
2021/07/28 02:22:53;;;;;;;15.60;10.25;;;;;;;21.69;48.31;99802.38;5093731;28;20028;-52
2021/07/28 02:25:19;;;;;;;18.10;10.70;;;;;;;21.90;48.00;99820.56;5094139;28;20568;-49
2021/07/28 02:27:46;;;;;;;17.40;10.13;;;;;;;21.96;48.19;99818.94;5093817;28;20034;-48
2021/07/28 02:30:12;;;;;;;26.27;13.68;;;;;;;22.06;47.86;99813.97;5093724;28;20459;-46
2021/07/28 02:32:39;;;;;;;20.05;11.55;;;;;;;22.16;47.68;99817.16;5093997;28;20028;-48
2021/07/28 02:35:06;;;;;;;18.17;10.85;;;;;;;22.33;47.27;99819.59;5093248;28;20124;-50
2021/07/28 02:37:32;;;;;;;17.00;11.15;;;;;;;22.39;47.26;99824.22;5093837;28;20028;-48
2021/07/28 02:39:58;;;;;;;18.55;11.00;;;;;;;22.44;46.89;99823.63;5094205;28;20028;-51
2021/07/28 02:42:24;;;;;;;19.88;10.82;;;;;;;22.53;46.96;99825.16;5093234;28;20024;-48
2021/07/28 02:44:49;;;;;;;23.00;10.80;;;;;;;22.55;46.63;99827.69;5093532;28;20482;-50
2021/07/28 02:47:15;;;;;;;17.48;11.35;;;;;;;22.59;46.76;99835.28;5093545;28;20150;-47
2021/07/28 02:49:40;;;;;;;15.88;10.68;;;;;;;22.59;46.59;99823.50;5075615;28;20033;-51
2021/07/28 02:52:06;;;;;;;21.63;11.55;;;;;;;22.65;46.62;99818.09;5093283;28;20024;-51
2021/07/28 02:54:31;;;;;;;17.27;10.77;;;;;;;22.69;46.45;99817.69;5093465;28;20036;-50
2021/07/28 02:56:58;;;;;;;17.05;10.70;;;;;;;22.71;46.52;99826.50;5093911;28;20422;-48
2021/07/28 02:59:23;;;;;;;19.10;10.95;;;;;;;22.69;46.32;99804.91;5075113;28;20058;-46
2021/07/28 03:01:49;;;;;;;19.55;10.98;;;;;;;22.72;46.47;99820.84;5092909;28;20032;-47
2021/07/28 03:04:16;;;;;;;24.02;11.07;;;;;;;22.73;46.33;99819.81;5093302;28;20459;-49
2021/07/28 03:06:41;;;;;;;19.90;11.40;;;;;;;22.78;46.28;99813.72;5093311;28;20024;-48
2021/07/28 03:09:06;;;;;;;17.70;11.27;;;;;;;22.82;46.31;99816.88;5093053;28;20039;-47
2021/07/28 03:11:32;;;;;;;17.13;10.50;;;;;;;22.85;46.06;99816.47;5093067;28;20044;-54
2021/07/28 03:13:58;;;;;;;18.80;10.82;;;;;;;22.91;45.95;99802.03;5093300;28;20042;-47
2021/07/28 03:16:23;;;;;;;16.33;10.68;;;;;;;23.08;45.45;99807.94;5093370;28;20506;-48
2021/07/28 03:18:49;;;;;;;22.27;11.95;;;;;;;23.08;45.45;99797.84;5093232;28;20081;-49
2021/07/28 03:21:14;;;;;;;19.10;11.13;;;;;;;23.19;45.24;99795.56;5092448;28;20363;-49
2021/07/28 03:23:41;;;;;;;22.50;11.00;;;;;;;23.26;44.91;99792.84;5092708;28;20479;-48
2021/07/28 03:26:06;;;;;;;17.38;11.25;;;;;;;23.33;45.03;99797.28;5092769;28;20031;-48
2021/07/28 03:28:32;;;;;;;20.35;11.43;;;;;;;23.48;44.60;99788.88;5092666;28;20054;-54
2021/07/28 03:30:57;;;;;;;16.20;10.60;;;;;;;23.71;44.03;99801.28;5092682;28;20092;-48
2021/07/28 03:33:23;;;;;;;18.13;11.27;;;;;;;24.04;43.51;99803.19;5092436;28;20088;-48
2021/07/28 03:35:48;;;;;;;20.08;11.38;;;;;;;24.46;42.59;99800.09;5092792;28;20039;-50
2021/07/28 03:38:14;;;;;;;17.08;10.68;;;;;;;25.00;41.60;99799.88;5092388;28;20067;-52
2021/07/28 03:40:40;;;;;;;19.55;10.93;;;;;;;25.69;40.15;99795.59;5092220;28;20340;-52
2021/07/28 03:43:06;;;;;;;25.85;11.63;;;;;;;26.43;37.56;99795.69;5073805;28;20103;-51
2021/07/28 03:45:32;;;;;;;20.67;11.70;;;;;;;27.17;36.58;99782.91;5074230;28;20440;-49
2021/07/28 03:47:58;;;;;;;19.33;11.80;;;;;;;27.87;34.71;99786.03;5092691;28;20024;-53
2021/07/28 03:50:24;;;;;;;22.70;11.38;;;;;;;28.47;33.78;99776.63;5092087;28;20864;-50
2021/07/28 03:52:49;;;;;;;20.98;12.65;;;;;;;29.05;32.17;99776.63;5091830;28;20379;-50
2021/07/28 03:55:15;;;;;;;22.63;12.18;;;;;;;29.57;31.15;99774.78;5092237;28;20111;-48
2021/07/28 03:57:40;;;;;;;22.20;11.75;;;;;;;30.20;30.21;99771.00;5092102;28;20051;-48
2021/07/28 04:00:07;;;;;;;17.08;11.73;;;;;;;30.98;28.92;99783.81;5091759;28;20099;-54
2021/07/28 04:02:32;;;;;;;17.15;11.57;;;;;;;31.73;27.76;99773.94;5092179;28;20035;-49
2021/07/28 04:04:58;;;;;;;17.00;11.70;;;;;;;32.27;26.60;99766.50;5091633;28;20107;-53
2021/07/28 04:07:23;;;;;;;17.95;11.18;;;;;;;32.86;25.97;99767.28;5091778;28;20042;-50
2021/07/28 04:09:49;;;;;;;22.58;11.23;;;;;;;33.40;25.02;99763.22;5091820;28;20056;-48
2021/07/28 04:12:14;;;;;;;21.75;11.82;;;;;;;33.90;24.57;99768.97;5091701;28;20463;-48
2021/07/28 04:14:40;;;;;;;19.70;11.63;;;;;;;34.03;23.83;99752.88;5091530;28;20028;-48
2021/07/28 04:17:07;;;;;;;23.02;12.32;;;;;;;34.37;24.01;99771.63;5073188;28;20068;-61
2021/07/28 04:19:32;;;;;;;16.70;11.25;;;;;;;34.64;23.38;99760.13;5092187;28;20040;-54
2021/07/28 04:21:58;;;;;;;19.48;11.10;;;;;;;34.41;23.70;99761.59;5091778;28;20028;-53
2021/07/28 04:24:24;;;;;;;22.17;10.82;;;;;;;34.33;23.84;99764.97;5091297;28;20059;-52
2021/07/28 04:26:49;;;;;;;22.77;10.80;;;;;;;33.94;24.12;99758.16;5091495;28;20387;-47
2021/07/28 04:29:14;;;;;;;16.80;10.75;;;;;;;33.74;24.08;99743.19;5091536;28;20034;-52
2021/07/28 04:31:40;;;;;;;15.45;10.90;;;;;;;34.34;23.80;99758.31;5091516;28;20024;-51
2021/07/28 04:34:05;;;;;;;21.55;10.77;;;;;;;35.01;22.74;99763.53;5090878;28;20032;-53
2021/07/28 04:36:31;;;;;;;25.08;11.13;;;;;;;35.76;21.78;99758.72;5091181;28;20063;-53
2021/07/28 04:38:59;;;;;;;28.05;10.55;;;;;;;36.56;21.30;99751.97;5091143;28;20082;-51
2021/07/28 04:41:25;;;;;;;18.35;11.23;;;;;;;36.89;20.42;99757.59;5091180;28;20108;-51
2021/07/28 04:43:50;;;;;;;18.50;11.23;;;;;;;37.35;19.75;99759.69;5091726;28;20062;-48
2021/07/28 04:46:17;;;;;;;18.02;10.35;;;;;;;37.82;19.25;99763.63;5091159;28;20036;-50
2021/07/28 04:48:43;;;;;;;16.00;10.85;;;;;;;38.19;19.03;99764.59;5091356;28;20028;-47
2021/07/28 04:51:09;;;;;;;19.52;11.38;;;;;;;38.64;18.54;99761.16;5091389;28;20030;-52
2021/07/28 04:53:34;;;;;;;18.75;10.75;;;;;;;38.53;18.61;99756.91;5091450;28;20031;-48
2021/07/28 04:56:00;;;;;;;18.85;11.40;;;;;;;37.78;19.48;99763.41;5091067;28;20038;-50
2021/07/28 04:58:25;;;;;;;18.63;10.55;;;;;;;36.91;20.07;99772.09;5090672;28;20404;-49
2021/07/28 05:00:52;;;;;;;15.38;10.18;;;;;;;36.09;20.87;99774.81;5091451;28;20036;-52
2021/07/28 05:03:18;;;;;;;13.68;9.82;;;;;;;35.10;21.83;99774.03;5073093;28;20071;-52
2021/07/28 05:05:44;;;;;;;16.42;10.65;;;;;;;34.31;23.07;99765.25;5090668;28;20063;-48
2021/07/28 05:08:10;;;;;;;20.17;10.73;;;;;;;33.55;24.06;99767.94;5090751;28;20024;-48
2021/07/28 05:10:36;;;;;;;19.02;11.77;;;;;;;32.86;25.24;99770.88;5091644;28;20024;-50
2021/07/28 05:13:03;;;;;;;20.92;10.80;;;;;;;32.30;26.36;99774.28;5090894;28;20544;-52
2021/07/28 05:15:28;;;;;;;21.13;11.18;;;;;;;31.74;27.12;99745.16;5090360;28;20816;-54
2021/07/28 05:17:54;;;;;;;14.88;11.55;;;;;;;31.79;27.07;99767.38;5091078;28;20047;-51
2021/07/28 05:20:19;;;;;;;18.58;11.05;;;;;;;31.95;27.18;99761.94;5091050;28;20444;-49
2021/07/28 05:22:46;;;;;;;20.35;11.52;;;;;;;31.74;26.90;99778.38;5091270;28;20451;-53
2021/07/28 05:25:12;;;;;;;21.73;11.43;;;;;;;31.16;28.79;99770.72;5090391;28;20105;-56
2021/07/28 05:27:38;;;;;;;17.25;11.63;;;;;;;30.56;30.21;99776.97;5090774;28;20030;-52
2021/07/28 05:30:04;;;;;;;24.73;12.15;;;;;;;29.89;31.73;99787.94;5090582;28;20114;-50
2021/07/28 05:32:30;;;;;;;16.92;11.75;;;;;;;29.30;33.59;99791.09;5091043;28;20435;-50
2021/07/28 05:34:56;;;;;;;19.02;11.82;;;;;;;28.85;34.08;99774.34;5072434;28;20059;-50
2021/07/28 05:37:21;;;;;;;20.33;12.32;;;;;;;28.54;34.66;99790.22;5090572;28;20024;-50
2021/07/28 05:39:47;;;;;;;16.02;11.30;;;;;;;28.28;35.13;99786.94;5090908;28;20067;-51
2021/07/28 05:42:13;;;;;;;14.25;10.07;;;;;;;28.04;34.93;99797.94;5090767;28;20047;-52
2021/07/28 05:44:39;;;;;;;18.35;8.95;;;;;;;27.87;34.42;99797.03;5073080;28;20050;-54
2021/07/28 05:47:04;;;;;;;17.65;8.75;;;;;;;27.78;34.43;99799.28;5094540;28;20071;-52
2021/07/28 05:49:30;;;;;;;14.63;7.80;;;;;;;27.54;34.20;99768.19;5094645;28;20858;-54
2021/07/28 05:51:55;;;;;;;13.23;7.72;;;;;;;27.69;34.36;99793.31;5094455;28;20085;-55
2021/07/28 05:54:21;;;;;;;14.82;8.27;;;;;;;27.75;34.70;99788.78;5094142;28;20375;-54
2021/07/28 05:56:47;;;;;;;12.52;8.00;;;;;;;27.84;34.67;99792.81;5093796;28;20028;-57
2021/07/28 05:59:13;;;;;;;16.05;8.27;;;;;;;27.82;34.61;99792.22;5094179;28;20589;-52
2021/07/28 06:01:38;;;;;;;12.13;8.00;;;;;;;27.78;35.07;99796.53;5094418;28;20506;-54
2021/07/28 06:04:04;;;;;;;13.50;7.65;;;;;;;27.70;35.33;99796.88;5075725;28;20069;-50
2021/07/28 06:06:30;;;;;;;12.75;7.65;;;;;;;27.59;35.89;99802.16;5093981;28;20119;-50
2021/07/28 06:08:55;;;;;;;12.98;7.72;;;;;;;27.36;37.36;99812.00;5073825;28;20028;-55
2021/07/28 06:11:21;;;;;;;16.35;8.25;;;;;;;27.03;38.21;99816.09;5073801;28;20033;-51
2021/07/28 06:13:47;;;;;;;15.10;8.02;;;;;;;26.67;39.28;99809.56;5078052;28;20360;-51
2021/07/28 06:16:12;;;;;;;9.65;7.72;;;;;;;26.42;39.87;99813.25;5092007;28;20101;-56
2021/07/28 06:18:38;;;;;;;15.82;8.00;;;;;;;26.15;40.70;99807.19;5092096;28;20380;-56
2021/07/28 06:21:03;;;;;;;11.68;8.10;;;;;;;25.94;41.64;99815.63;5091872;28;20044;-50
2021/07/28 06:23:29;;;;;;;14.20;7.95;;;;;;;25.71;42.06;99820.91;5092046;28;20028;-51
2021/07/28 06:25:56;;;;;;;11.55;7.70;;;;;;;25.46;43.04;99813.47;5091898;28;20080;-52
2021/07/28 06:28:22;;;;;;;11.45;8.50;;;;;;;25.16;43.36;99795.75;5091998;28;20111;-49
2021/07/28 06:30:51;;;;;;;13.00;7.93;;;;;;;25.25;43.60;99834.69;5092290;28;20107;-55
2021/07/28 06:33:17;;;;;;;12.63;8.18;;;;;;;25.13;44.18;99826.34;5093111;28;20430;-52
2021/07/28 06:35:43;;;;;;;15.15;8.55;;;;;;;25.08;44.57;99820.69;5075577;28;20081;-59
2021/07/28 06:38:09;;;;;;;18.02;8.73;;;;;;;25.04;45.08;99827.66;5094040;28;20024;-55
2021/07/28 06:40:34;;;;;;;11.75;8.20;;;;;;;24.98;45.02;99829.38;5093391;28;20048;-46
2021/07/28 06:42:59;;;;;;;13.77;7.95;;;;;;;24.92;45.37;99835.75;5075130;28;20020;-55
2021/07/28 06:45:25;;;;;;;10.80;7.43;;;;;;;24.91;45.80;99832.16;5093482;28;20035;-53
2021/07/28 06:47:50;;;;;;;10.23;6.75;;;;;;;24.98;46.14;99840.34;5075419;28;20437;-49
2021/07/28 06:50:16;;;;;;;11.18;7.25;;;;;;;25.05;45.59;99835.66;5093596;28;20546;-50
2021/07/28 06:52:41;;;;;;;10.18;6.80;;;;;;;25.05;45.80;99835.66;5093617;28;20032;-49
2021/07/28 06:55:07;;;;;;;11.05;7.07;;;;;;;25.01;46.09;99837.16;5093240;28;20534;-52
2021/07/28 06:57:33;;;;;;;13.32;6.85;;;;;;;24.98;46.50;99834.84;5092633;28;20027;-52
2021/07/28 06:59:58;;;;;;;10.93;7.57;;;;;;;24.88;46.99;99834.50;5093248;28;20028;-50
2021/07/28 07:02:24;;;;;;;8.00;7.03;;;;;;;24.84;47.26;99838.72;5074913;28;20107;-48
2021/07/28 07:04:49;;;;;;;10.23;6.93;;;;;;;24.75;47.45;99841.69;5093134;28;20158;-50
2021/07/28 07:07:14;;;;;;;11.18;7.00;;;;;;;24.59;47.90;99839.41;5093162;28;20059;-58
2021/07/28 07:09:40;;;;;;;10.35;6.65;;;;;;;24.48;48.01;99836.31;5093105;28;20496;-49
2021/07/28 07:12:06;;;;;;;9.32;7.00;;;;;;;24.35;49.34;99839.91;5092829;28;20402;-52
2021/07/28 07:14:31;;;;;;;10.38;6.93;;;;;;;24.30;50.52;99834.25;5083992;28;20119;-50
2021/07/28 07:16:58;;;;;;;9.40;6.57;;;;;;;24.30;50.99;99833.41;5082245;28;20421;-54
2021/07/28 07:19:25;;;;;;;10.15;7.15;;;;;;;24.27;50.40;99822.91;5092809;28;20475;-53
2021/07/28 07:21:51;;;;;;;11.02;7.13;;;;;;;24.22;50.88;99818.91;5076264;28;20112;-52
2021/07/28 07:24:16;;;;;;;13.15;7.47;;;;;;;24.26;51.15;99827.53;5072379;28;20170;-55
2021/07/28 07:26:41;;;;;;;10.88;7.38;;;;;;;24.30;50.91;99822.47;5072890;28;20033;-50
2021/07/28 07:29:07;;;;;;;9.55;7.60;;;;;;;24.22;51.31;99802.50;5072462;28;20046;-53
2021/07/28 07:31:33;;;;;;;9.77;7.50;;;;;;;24.53;51.67;99821.97;5072081;28;20488;-49
2021/07/28 07:33:58;;;;;;;14.48;6.95;;;;;;;24.69;50.23;99817.91;5087814;28;20039;-54
2021/07/28 07:36:25;;;;;;;7.95;7.05;;;;;;;24.76;50.73;99798.75;5092227;28;20047;-49
2021/07/28 07:38:50;;;;;;;9.35;7.65;;;;;;;25.04;50.89;99823.03;5074439;28;20121;-52
2021/07/28 07:41:16;;;;;;;13.40;7.38;;;;;;;25.15;49.96;99818.75;5092311;28;20074;-51
2021/07/28 07:43:41;;;;;;;10.60;7.57;;;;;;;25.23;49.53;99814.91;5074000;28;20038;-54
2021/07/28 07:46:07;;;;;;;10.43;7.53;;;;;;;25.35;49.09;99813.16;5073676;28;20068;-51
2021/07/28 07:48:33;;;;;;;14.18;7.85;;;;;;;25.50;49.83;99801.03;5092204;28;20032;-50
2021/07/28 07:50:58;;;;;;;10.32;7.68;;;;;;;25.57;48.60;99799.09;5091810;28;20467;-54
2021/07/28 07:53:24;;;;;;;10.98;7.45;;;;;;;25.54;48.08;99791.28;5092009;28;20482;-53
2021/07/28 07:55:50;;;;;;;10.32;7.13;;;;;;;25.49;48.51;99780.16;5090989;28;20039;-53
2021/07/28 07:58:15;;;;;;;8.52;7.65;;;;;;;25.64;48.21;99788.03;5092026;28;20093;-52
2021/07/28 08:00:41;;;;;;;9.23;7.80;;;;;;;25.85;47.70;99788.72;5091131;28;20098;-49
2021/07/28 08:03:06;;;;;;;7.70;6.93;;;;;;;26.04;46.98;99787.66;5090770;28;20028;-48
2021/07/28 08:05:35;;;;;;;9.68;6.82;;;;;;;26.19;46.57;99784.59;5091940;28;20063;-49
2021/07/28 08:08:00;;;;;;;8.98;7.38;;;;;;;26.22;46.08;99767.66;5091323;28;20383;-51
2021/07/28 08:10:26;;;;;;;11.23;7.15;;;;;;;26.45;45.99;99788.06;5088130;28;20020;-52
2021/07/28 08:12:52;;;;;;;8.90;6.93;;;;;;;26.50;46.08;99781.91;5080175;28;20559;-53
2021/07/28 08:15:17;;;;;;;9.80;8.70;;;;;;;26.56;46.42;99780.16;5091684;28;20382;-50
2021/07/28 08:17:43;;;;;;;10.52;8.07;;;;;;;26.49;46.29;99786.53;5077355;28;20476;-48
2021/07/28 08:20:09;;;;;;;13.88;8.27;;;;;;;26.40;46.00;99789.81;5081807;28;20554;-51
2021/07/28 08:22:34;;;;;;;15.68;8.32;;;;;;;26.30;46.53;99791.22;5091389;28;20035;-49
2021/07/28 08:25:01;;;;;;;13.18;8.77;;;;;;;26.29;47.07;99794.19;5091693;28;20068;-52
2021/07/28 08:27:27;;;;;;;13.57;8.85;;;;;;;26.24;47.15;99783.91;5073209;28;20020;-52
2021/07/28 08:29:54;;;;;;;11.88;8.95;;;;;;;26.22;47.54;99784.13;5091126;28;20028;-55
2021/07/28 08:32:19;;;;;;;11.18;8.93;;;;;;;26.23;48.11;99782.22;5090900;28;20035;-61
2021/07/28 08:35:05;;;;;;;13.07;9.75;;;;;;;26.36;47.65;99786.72;5076881;28;20040;-51
2021/07/28 08:37:39;;;;;;;14.80;9.75;;;;;;;26.46;47.14;99786.19;5090755;28;20044;-55
2021/07/28 08:40:17;;;;;;;11.55;9.18;;;;;;;26.73;46.76;99777.59;5069988;28;20074;-53
2021/07/28 08:42:48;;;;;;;16.77;9.68;;;;;;;26.85;47.02;99773.00;5091166;28;20043;-54
2021/07/28 08:45:16;;;;;;;15.52;9.68;;;;;;;26.90;45.89;99761.34;5091128;28;20030;-53
2021/07/28 08:47:45;;;;;;;18.27;9.55;;;;;;;27.04;45.39;99762.81;5091112;28;20368;-49
2021/07/28 08:50:12;;;;;;;13.70;8.60;;;;;;;27.12;45.29;99758.88;5091179;28;20032;-57
2021/07/28 08:52:39;;;;;;;11.93;8.57;;;;;;;27.19;44.08;99767.03;5091289;28;20063;-56
2021/07/28 08:55:07;;;;;;;11.75;8.38;;;;;;;27.19;43.84;99770.63;5091242;28;20024;-56
2021/07/28 08:57:34;;;;;;;11.55;8.15;;;;;;;27.11;43.14;99765.44;5072832;28;20054;-51
2021/07/28 09:00:00;;;;;;;12.88;8.25;;;;;;;27.03;44.16;99766.63;5072575;28;20108;-52
2021/07/28 09:02:26;;;;;;;12.05;8.35;;;;;;;27.00;43.78;99763.50;5089663;28;20052;-50
2021/07/28 09:04:55;;;;;;;8.15;7.10;;;;;;;27.03;43.21;99769.38;5066730;28;20114;-57
2021/07/28 09:07:22;;;;;;;9.52;7.60;;;;;;;26.95;43.44;99764.22;5090373;28;20024;-51
2021/07/28 09:09:50;;;;;;;9.45;7.30;;;;;;;26.96;43.20;99757.63;5090330;28;20036;-51
2021/07/28 09:12:16;;;;;;;13.32;7.60;;;;;;;26.91;43.42;99752.00;5091247;28;20020;-51
2021/07/28 09:14:55;;;;;;;11.48;7.75;;;;;;;27.07;43.18;99762.34;5090095;28;20024;-52
2021/07/28 09:17:34;;;;;;;9.82;7.07;;;;;;;27.11;43.40;99759.13;5052632;28;20190;-51
2021/07/28 09:20:00;;;;;;;11.73;7.97;;;;;;;27.18;42.67;99740.63;5072371;28;20036;-51
2021/07/28 09:22:32;;;;;;;11.50;7.70;;;;;;;27.33;43.27;99749.25;5064836;28;20028;-54
2021/07/28 09:25:10;;;;;;;12.40;7.68;;;;;;;27.54;42.63;99749.78;5095072;28;20040;-52
2021/07/28 09:27:44;;;;;;;11.13;7.20;;;;;;;27.72;41.87;99753.47;5094772;28;20031;-56
2021/07/28 09:30:13;;;;;;;11.02;7.05;;;;;;;27.77;41.98;99748.13;5094934;28;20032;-56
2021/07/28 09:32:59;;;;;;;9.40;7.20;;;;;;;27.99;41.50;99742.81;5094859;28;20391;-55
2021/07/28 09:35:48;;;;;;;11.15;7.53;;;;;;;28.06;41.79;99740.75;5076204;28;20028;-53
2021/07/28 09:38:36;;;;;;;10.77;7.80;;;;;;;28.16;41.43;99748.44;5081403;28;20036;-52
2021/07/28 09:41:23;;;;;;;7.53;6.60;;;;;;;28.17;41.29;99747.34;5094724;28;20032;-48
2021/07/28 09:43:51;;;;;;;7.88;6.97;;;;;;;28.00;41.36;99740.91;5094389;28;20523;-51
2021/07/28 09:46:21;;;;;;;9.85;7.28;;;;;;;28.04;40.64;99742.91;5094550;28;20062;-52
2021/07/28 09:48:47;;;;;;;7.78;6.65;;;;;;;28.02;41.74;99742.31;5094428;28;20032;-51
2021/07/28 09:51:33;;;;;;;10.63;7.65;;;;;;;28.21;40.57;99745.81;5075700;28;20039;-54
2021/07/28 09:54:01;;;;;;;8.13;7.10;;;;;;;28.01;40.81;99746.16;5094275;28;20443;-52
2021/07/28 09:56:37;;;;;;;7.60;6.25;;;;;;;27.74;40.58;99726.59;5093989;28;20111;-52
2021/07/28 09:59:04;;;;;;;7.00;6.18;;;;;;;27.69;40.87;99740.19;5055662;28;20028;-52
2021/07/28 10:01:32;;;;;;;6.85;6.15;;;;;;;27.58;41.56;99739.97;5074043;28;20058;-53
2021/07/28 10:03:59;;;;;;;7.85;5.85;;;;;;;27.50;41.17;99737.56;5055681;28;20082;-53
2021/07/28 10:06:31;;;;;;;7.05;6.05;;;;;;;27.34;41.07;99739.06;5074099;28;20036;-60
2021/07/28 10:08:59;;;;;;;6.32;5.70;;;;;;;27.16;40.82;99742.75;5073538;28;20060;-56
2021/07/28 10:11:24;;;;;;;6.75;6.00;;;;;;;26.79;41.73;99716.25;5073754;28;20044;-52
2021/07/28 10:13:51;;;;;;;7.47;6.30;;;;;;;26.73;42.68;99734.47;5056046;28;20029;-57
2021/07/28 10:16:18;;;;;;;7.68;6.47;;;;;;;26.55;43.36;99726.31;5072178;28;20076;-55
2021/07/28 10:18:48;;;;;;;8.63;6.65;;;;;;;26.51;43.36;99732.25;5073482;28;20041;-55
2021/07/28 10:21:14;;;;;;;12.25;7.30;;;;;;;26.31;44.22;99723.47;5073814;28;20349;-54
2021/07/28 10:23:43;;;;;;;12.27;7.43;;;;;;;26.24;44.59;99726.28;5073533;28;20031;-52
2021/07/28 10:26:12;;;;;;;10.88;7.88;;;;;;;26.16;45.00;99730.16;5073688;28;20070;-54
2021/07/28 10:28:38;;;;;;;12.32;8.57;;;;;;;26.07;45.20;99726.84;5073667;28;20024;-52
2021/07/28 10:31:14;;;;;;;12.93;8.57;;;;;;;26.00;45.36;99722.50;5072256;28;20036;-53
2021/07/28 10:33:46;;;;;;;18.02;8.80;;;;;;;25.92;45.87;99724.50;5073217;28;20036;-53
2021/07/28 10:36:13;;;;;;;16.33;10.43;;;;;;;25.73;47.50;99726.41;5055529;28;20032;-48
2021/07/28 10:38:56;;;;;;;14.07;9.35;;;;;;;25.82;46.26;99726.09;5073533;28;20039;-52
2021/07/28 10:41:44;;;;;;;11.35;8.48;;;;;;;25.70;46.13;99720.50;5073715;28;20028;-54
2021/07/28 10:44:15;;;;;;;11.02;7.28;;;;;;;25.36;45.13;99732.59;5065723;28;20437;-52
2021/07/28 10:46:53;;;;;;;12.07;7.43;;;;;;;25.19;45.94;99731.47;5072940;28;20043;-54
2021/07/28 10:49:37;;;;;;;7.60;6.78;;;;;;;25.09;46.47;99734.72;5073220;28;20059;-54
2021/07/28 10:52:13;;;;;;;9.98;7.85;;;;;;;25.03;47.42;99716.44;5072579;28;20478;-52
2021/07/28 10:54:48;;;;;;;9.77;8.00;;;;;;;25.14;47.46;99712.13;5055160;28;20029;-54
2021/07/28 10:57:43;;;;;;;9.50;7.90;;;;;;;25.31;46.83;99717.91;5073123;28;20068;-52
2021/07/28 11:00:11;;;;;;;11.60;8.07;;;;;;;25.21;47.30;99702.81;5090557;28;20122;-54
2021/07/28 11:02:52;;;;;;;8.93;7.47;;;;;;;25.38;45.82;99702.22;5092903;28;20024;-51
2021/07/28 11:05:20;;;;;;;9.07;7.47;;;;;;;25.20;47.20;99690.19;5093416;28;20123;-51
2021/07/28 11:08:07;;;;;;;10.50;7.78;;;;;;;25.29;47.15;99690.72;5093139;28;20029;-50
2021/07/28 11:10:40;;;;;;;11.23;7.60;;;;;;;25.13;46.62;99691.28;5090884;28;20491;-55
2021/07/28 11:13:10;;;;;;;10.88;7.97;;;;;;;24.98;47.18;99684.22;5077290;28;20082;-52
2021/07/28 11:15:37;;;;;;;11.40;9.10;;;;;;;24.73;48.99;99679.53;5072287;28;20131;-51
2021/07/28 11:18:04;;;;;;;9.75;8.32;;;;;;;24.49;49.43;99668.31;5079515;28;20028;-53
2021/07/28 11:20:39;;;;;;;10.35;7.88;;;;;;;24.59;48.66;99673.31;5071022;28;20037;-59
2021/07/28 11:23:28;;;;;;;9.38;6.72;;;;;;;24.69;47.76;99683.78;5076899;28;20028;-50
2021/07/28 11:25:56;;;;;;;9.07;6.55;;;;;;;24.64;48.02;99669.91;5092592;28;20542;-55
2021/07/28 11:28:23;;;;;;;10.35;6.95;;;;;;;24.76;47.23;99662.69;5092176;28;20383;-54
2021/07/28 11:30:55;;;;;;;8.07;6.60;;;;;;;25.06;46.95;99656.56;5092380;28;20089;-53